sensor_id;sensor_type;location;lat;lon;timestamp;temperature;humidity
58309;DHT22;44117;57.142;24.826;2022-08-02T07:59:56;20.80;99.90
58309;DHT22;44117;57.142;24.826;2022-08-02T08:02:24;21.20;99.90
58309;DHT22;44117;57.142;24.826;2022-08-02T08:04:52;21.40;99.90
58309;DHT22;44117;57.142;24.826;2022-08-02T08:07:19;21.20;99.90
58309;DHT22;44117;57.142;24.826;2022-08-02T08:09:47;21.30;99.90
58309;DHT22;44117;57.142;24.826;2022-08-02T08:12:22;21.30;99.90
58309;DHT22;44117;57.142;24.826;2022-08-02T08:14:49;21.30;99.90
58309;DHT22;44117;57.142;24.826;2022-08-02T08:17:17;21.50;99.90
58309;DHT22;44117;57.142;24.826;2022-08-02T08:19:44;21.50;99.90
58309;DHT22;44117;57.142;24.826;2022-08-02T08:22:21;21.50;99.90
58309;DHT22;44117;57.142;24.826;2022-08-02T08:24:49;21.30;99.90
58309;DHT22;44117;57.142;24.826;2022-08-02T08:27:17;21.40;99.90
58309;DHT22;44117;57.142;24.826;2022-08-02T08:29:45;21.70;99.90
58309;DHT22;44117;57.142;24.826;2022-08-02T08:32:13;21.90;99.90
58309;DHT22;44117;57.142;24.826;2022-08-02T08:34:47;22.10;99.60
58309;DHT22;44117;57.142;24.826;2022-08-02T08:37:15;22.20;99.90
58309;DHT22;44117;57.142;24.826;2022-08-02T08:39:48;22.00;99.10
58309;DHT22;44117;57.142;24.826;2022-08-02T08:42:29;21.80;99.90
58309;DHT22;44117;57.142;24.826;2022-08-02T08:44:58;21.60;99.90
58309;DHT22;44117;57.142;24.826;2022-08-02T08:47:38;21.80;99.90
58309;DHT22;44117;57.142;24.826;2022-08-02T08:50:11;22.00;99.20
58309;DHT22;44117;57.142;24.826;2022-08-02T08:53:04;21.60;99.90
58309;DHT22;44117;57.142;24.826;2022-08-02T08:55:33;21.60;99.60
58309;DHT22;44117;57.142;24.826;2022-08-02T08:58:02;21.20;99.40
58309;DHT22;44117;57.142;24.826;2022-08-02T09:00:31;21.30;99.10
58309;DHT22;44117;57.142;24.826;2022-08-02T09:03:04;21.00;99.90
58309;DHT22;44117;57.142;24.826;2022-08-02T09:05:34;21.30;99.40
58309;DHT22;44117;57.142;24.826;2022-08-02T09:08:03;21.90;98.50
58309;DHT22;44117;57.142;24.826;2022-08-02T09:16:03;22.80;96.90
58309;DHT22;44117;57.142;24.826;2022-08-02T09:18:42;22.40;97.90
58309;DHT22;44117;57.142;24.826;2022-08-02T09:21:12;21.90;98.90
58309;DHT22;44117;57.142;24.826;2022-08-02T09:23:45;21.80;99.60
58309;DHT22;44117;57.142;24.826;2022-08-02T09:26:17;22.20;99.20
58309;DHT22;44117;57.142;24.826;2022-08-02T09:28:47;22.40;97.60
58309;DHT22;44117;57.142;24.826;2022-08-02T09:31:16;22.90;97.90
58309;DHT22;44117;57.142;24.826;2022-08-02T09:33:58;23.10;96.00
58309;DHT22;44117;57.142;24.826;2022-08-02T09:36:35;23.40;96.00
58309;DHT22;44117;57.142;24.826;2022-08-02T09:39:05;22.50;97.50
58309;DHT22;44117;57.142;24.826;2022-08-02T09:41:36;22.50;96.10
58309;DHT22;44117;57.142;24.826;2022-08-02T09:44:04;22.50;96.60
58309;DHT22;44117;57.142;24.826;2022-08-02T09:46:41;22.60;96.60
58309;DHT22;44117;57.142;24.826;2022-08-02T09:49:10;22.70;96.80
58309;DHT22;44117;57.142;24.826;2022-08-02T09:54:17;22.70;95.90
58309;DHT22;44117;57.142;24.826;2022-08-02T09:56:50;22.40;96.50
58309;DHT22;44117;57.142;24.826;2022-08-02T09:59:19;22.60;95.80
58309;DHT22;44117;57.142;24.826;2022-08-02T10:01:48;22.70;96.50
58309;DHT22;44117;57.142;24.826;2022-08-02T10:04:26;23.00;96.40
58309;DHT22;44117;57.142;24.826;2022-08-02T10:06:56;23.50;95.10
58309;DHT22;44117;57.142;24.826;2022-08-02T10:09:26;24.20;93.90
58309;DHT22;44117;57.142;24.826;2022-08-02T10:11:55;24.30;95.20
58309;DHT22;44117;57.142;24.826;2022-08-02T10:14:24;24.40;94.40
58309;DHT22;44117;57.142;24.826;2022-08-02T10:16:52;24.30;93.40
58309;DHT22;44117;57.142;24.826;2022-08-02T10:19:20;25.00;95.50
58309;DHT22;44117;57.142;24.826;2022-08-02T10:22:13;25.90;92.20
58309;DHT22;44117;57.142;24.826;2022-08-02T10:24:41;26.80;91.60
58309;DHT22;44117;57.142;24.826;2022-08-02T10:27:19;26.60;90.70
58309;DHT22;44117;57.142;24.826;2022-08-02T10:29:48;25.00;90.90
58309;DHT22;44117;57.142;24.826;2022-08-02T10:32:44;24.40;91.40
58309;DHT22;44117;57.142;24.826;2022-08-02T10:35:16;24.90;90.10
58309;DHT22;44117;57.142;24.826;2022-08-02T10:38:06;25.00;90.80
58309;DHT22;44117;57.142;24.826;2022-08-02T10:40:54;25.60;90.50
58309;DHT22;44117;57.142;24.826;2022-08-02T10:46:24;27.00;88.70
58309;DHT22;44117;57.142;24.826;2022-08-02T10:49:08;28.30;86.80
58309;DHT22;44117;57.142;24.826;2022-08-02T10:57:18;28.50;79.40
58309;DHT22;44117;57.142;24.826;2022-08-02T10:59:51;29.20;80.00
58309;DHT22;44117;57.142;24.826;2022-08-02T11:05:08;27.50;80.70
58309;DHT22;44117;57.142;24.826;2022-08-02T11:07:41;27.50;83.60
58309;DHT22;44117;57.142;24.826;2022-08-02T11:10:33;28.40;81.90
58309;DHT22;44117;57.142;24.826;2022-08-02T11:13:03;28.70;76.70
58309;DHT22;44117;57.142;24.826;2022-08-02T11:21:31;29.70;72.40
58309;DHT22;44117;57.142;24.826;2022-08-02T11:24:29;28.20;75.70
58309;DHT22;44117;57.142;24.826;2022-08-02T11:27:05;27.60;78.20
58309;DHT22;44117;57.142;24.826;2022-08-02T11:29:33;26.90;76.40
58309;DHT22;44117;57.142;24.826;2022-08-02T11:32:06;28.20;80.00
58309;DHT22;44117;57.142;24.826;2022-08-02T11:34:33;29.40;77.70
58309;DHT22;44117;57.142;24.826;2022-08-02T11:37:04;30.50;73.10
58309;DHT22;44117;57.142;24.826;2022-08-02T11:39:31;31.70;71.70
58309;DHT22;44117;57.142;24.826;2022-08-02T11:41:59;32.60;69.50
58309;DHT22;44117;57.142;24.826;2022-08-02T11:44:29;32.30;65.50
58309;DHT22;44117;57.142;24.826;2022-08-02T11:46:59;31.30;67.40
58309;DHT22;44117;57.142;24.826;2022-08-02T11:49:27;31.50;66.20
58309;DHT22;44117;57.142;24.826;2022-08-02T11:54:27;32.10;64.90
58309;DHT22;44117;57.142;24.826;2022-08-02T11:59:46;31.90;65.60
58309;DHT22;44117;57.142;24.826;2022-08-02T12:02:14;33.50;68.10
58309;DHT22;44117;57.142;24.826;2022-08-02T12:04:42;33.80;66.80
58309;DHT22;44117;57.142;24.826;2022-08-02T12:07:10;35.40;65.20
58309;DHT22;44117;57.142;24.826;2022-08-02T12:09:40;35.30;59.20
58309;DHT22;44117;57.142;24.826;2022-08-02T12:12:08;32.80;61.30
58309;DHT22;44117;57.142;24.826;2022-08-02T12:14:41;32.90;62.00
58309;DHT22;44117;57.142;24.826;2022-08-02T12:17:10;32.20;61.70
58309;DHT22;44117;57.142;24.826;2022-08-02T12:19:55;32.10;63.50
58309;DHT22;44117;57.142;24.826;2022-08-02T12:22:26;33.00;63.80
58309;DHT22;44117;57.142;24.826;2022-08-02T12:24:56;33.10;62.70
58309;DHT22;44117;57.142;24.826;2022-08-02T12:27:50;31.80;63.60
58309;DHT22;44117;57.142;24.826;2022-08-02T12:30:21;31.70;64.00
58309;DHT22;44117;57.142;24.826;2022-08-02T12:33:07;31.30;63.90
58309;DHT22;44117;57.142;24.826;2022-08-02T12:35:39;30.20;66.30
58309;DHT22;44117;57.142;24.826;2022-08-02T12:38:10;31.60;67.10
58309;DHT22;44117;57.142;24.826;2022-08-02T12:40:38;32.30;65.50
58309;DHT22;44117;57.142;24.826;2022-08-02T12:43:14;33.10;65.00
58309;DHT22;44117;57.142;24.826;2022-08-02T12:45:55;34.20;64.70
58309;DHT22;44117;57.142;24.826;2022-08-02T12:48:33;35.30;63.80
58309;DHT22;44117;57.142;24.826;2022-08-02T12:51:24;36.80;60.70
58309;DHT22;44117;57.142;24.826;2022-08-02T12:54:15;35.60;57.90
58309;DHT22;44117;57.142;24.826;2022-08-02T12:56:44;32.10;61.40
58309;DHT22;44117;57.142;24.826;2022-08-02T12:59:11;32.90;61.10
58309;DHT22;44117;57.142;24.826;2022-08-02T13:01:38;33.40;60.80
58309;DHT22;44117;57.142;24.826;2022-08-02T13:04:06;32.90;63.80
58309;DHT22;44117;57.142;24.826;2022-08-02T13:06:40;33.50;63.20
58309;DHT22;44117;57.142;24.826;2022-08-02T13:09:12;33.40;61.30
58309;DHT22;44117;57.142;24.826;2022-08-02T13:11:40;32.90;61.10
58309;DHT22;44117;57.142;24.826;2022-08-02T13:14:10;32.00;61.70
58309;DHT22;44117;57.142;24.826;2022-08-02T13:16:39;32.60;62.00
58309;DHT22;44117;57.142;24.826;2022-08-02T13:19:07;33.20;62.70
58309;DHT22;44117;57.142;24.826;2022-08-02T13:21:34;32.50;61.10
58309;DHT22;44117;57.142;24.826;2022-08-02T13:24:21;32.00;65.20
58309;DHT22;44117;57.142;24.826;2022-08-02T13:27:06;33.20;63.20
58309;DHT22;44117;57.142;24.826;2022-08-02T13:29:36;33.50;62.50
58309;DHT22;44117;57.142;24.826;2022-08-02T13:32:04;30.80;63.50
58309;DHT22;44117;57.142;24.826;2022-08-02T13:34:31;31.70;66.80
58309;DHT22;44117;57.142;24.826;2022-08-02T13:36:58;31.10;63.70
58309;DHT22;44117;57.142;24.826;2022-08-02T13:39:25;30.30;65.60
58309;DHT22;44117;57.142;24.826;2022-08-02T13:41:53;29.90;65.90
58309;DHT22;44117;57.142;24.826;2022-08-02T13:44:21;29.30;67.70
58309;DHT22;44117;57.142;24.826;2022-08-02T13:46:48;30.30;67.90
58309;DHT22;44117;57.142;24.826;2022-08-02T13:49:15;31.30;64.90
58309;DHT22;44117;57.142;24.826;2022-08-02T13:51:46;30.60;65.40
58309;DHT22;44117;57.142;24.826;2022-08-02T13:54:15;29.90;67.80
58309;DHT22;44117;57.142;24.826;2022-08-02T13:56:42;29.10;68.30
58309;DHT22;44117;57.142;24.826;2022-08-02T13:59:10;28.80;71.00
58309;DHT22;44117;57.142;24.826;2022-08-02T14:01:58;28.40;70.40
58309;DHT22;44117;57.142;24.826;2022-08-02T14:04:26;27.90;70.50
58309;DHT22;44117;57.142;24.826;2022-08-02T14:06:53;27.50;71.70
58309;DHT22;44117;57.142;24.826;2022-08-02T14:09:25;27.30;72.90
58309;DHT22;44117;57.142;24.826;2022-08-02T14:11:52;27.10;72.20
58309;DHT22;44117;57.142;24.826;2022-08-02T14:14:20;27.20;73.30
58309;DHT22;44117;57.142;24.826;2022-08-02T14:16:47;27.20;76.20
58309;DHT22;44117;57.142;24.826;2022-08-02T14:19:15;26.70;72.00
58309;DHT22;44117;57.142;24.826;2022-08-02T14:21:43;26.70;76.40
58309;DHT22;44117;57.142;24.826;2022-08-02T14:24:17;26.50;73.80
58309;DHT22;44117;57.142;24.826;2022-08-02T14:26:46;26.30;75.00
58309;DHT22;44117;57.142;24.826;2022-08-02T14:29:15;26.20;73.10
58309;DHT22;44117;57.142;24.826;2022-08-02T14:31:43;26.00;75.60
58309;DHT22;44117;57.142;24.826;2022-08-02T14:34:12;26.00;74.20
58309;DHT22;44117;57.142;24.826;2022-08-02T14:36:40;25.90;77.00
58309;DHT22;44117;57.142;24.826;2022-08-02T14:39:07;25.90;75.90
58309;DHT22;44117;57.142;24.826;2022-08-02T14:41:35;25.90;75.80
58309;DHT22;44117;57.142;24.826;2022-08-02T14:44:23;26.10;75.00
58309;DHT22;44117;57.142;24.826;2022-08-02T14:46:51;26.90;74.40
58309;DHT22;44117;57.142;24.826;2022-08-02T14:49:19;27.60;72.00
58309;DHT22;44117;57.142;24.826;2022-08-02T14:51:53;27.60;71.70
58309;DHT22;44117;57.142;24.826;2022-08-02T14:54:21;27.60;72.20
58309;DHT22;44117;57.142;24.826;2022-08-02T14:56:57;27.40;75.80
58309;DHT22;44117;57.142;24.826;2022-08-02T14:59:24;27.20;72.70
58309;DHT22;44117;57.142;24.826;2022-08-02T15:01:52;27.00;72.70
58309;DHT22;44117;57.142;24.826;2022-08-02T15:04:19;26.80;73.60
58309;DHT22;44117;57.142;24.826;2022-08-02T15:06:47;26.60;78.50
58309;DHT22;44117;57.142;24.826;2022-08-02T15:09:14;26.50;76.80
58309;DHT22;44117;57.142;24.826;2022-08-02T15:11:42;26.60;79.40
58309;DHT22;44117;57.142;24.826;2022-08-02T15:14:14;27.10;80.60
58309;DHT22;44117;57.142;24.826;2022-08-02T15:16:47;27.00;76.10
58309;DHT22;44117;57.142;24.826;2022-08-02T15:19:23;27.20;79.40
58309;DHT22;44117;57.142;24.826;2022-08-02T15:22:10;27.10;76.20
58309;DHT22;44117;57.142;24.826;2022-08-02T15:24:45;27.20;75.60
58309;DHT22;44117;57.142;24.826;2022-08-02T15:27:14;27.30;73.80
58309;DHT22;44117;57.142;24.826;2022-08-02T15:29:43;27.40;74.80
58309;DHT22;44117;57.142;24.826;2022-08-02T15:32:11;27.00;77.30
58309;DHT22;44117;57.142;24.826;2022-08-02T15:34:39;26.80;80.70
58309;DHT22;44117;57.142;24.826;2022-08-02T15:37:06;26.50;81.90
58309;DHT22;44117;57.142;24.826;2022-08-02T15:39:34;26.30;81.00
58309;DHT22;44117;57.142;24.826;2022-08-02T15:42:02;26.00;81.90
58309;DHT22;44117;57.142;24.826;2022-08-02T15:44:29;25.60;80.20
58309;DHT22;44117;57.142;24.826;2022-08-02T15:46:57;25.30;80.40
58309;DHT22;44117;57.142;24.826;2022-08-02T15:49:24;25.00;83.50
58309;DHT22;44117;57.142;24.826;2022-08-02T15:51:52;24.90;85.80
58309;DHT22;44117;57.142;24.826;2022-08-02T15:54:20;24.80;84.30
58309;DHT22;44117;57.142;24.826;2022-08-02T15:56:48;24.60;86.10
58309;DHT22;44117;57.142;24.826;2022-08-02T15:59:15;24.50;88.10
58309;DHT22;44117;57.142;24.826;2022-08-02T16:01:43;24.40;90.00
58309;DHT22;44117;57.142;24.826;2022-08-02T16:04:14;24.30;90.30
58309;DHT22;44117;57.142;24.826;2022-08-02T16:06:42;24.20;91.10
58309;DHT22;44117;57.142;24.826;2022-08-02T16:09:10;24.20;91.20
58309;DHT22;44117;57.142;24.826;2022-08-02T16:11:38;24.10;91.60
58309;DHT22;44117;57.142;24.826;2022-08-02T16:14:06;24.10;91.10
58309;DHT22;44117;57.142;24.826;2022-08-02T16:16:34;24.20;91.10
58309;DHT22;44117;57.142;24.826;2022-08-02T16:19:03;24.20;91.10
58309;DHT22;44117;57.142;24.826;2022-08-02T16:21:52;24.20;90.50
58309;DHT22;44117;57.142;24.826;2022-08-02T16:24:19;24.20;91.00
58309;DHT22;44117;57.142;24.826;2022-08-02T16:26:47;24.20;91.10
58309;DHT22;44117;57.142;24.826;2022-08-02T16:29:14;24.20;90.40
58309;DHT22;44117;57.142;24.826;2022-08-02T16:31:46;24.20;90.00
58309;DHT22;44117;57.142;24.826;2022-08-02T16:34:14;24.50;89.10
58309;DHT22;44117;57.142;24.826;2022-08-02T16:36:42;24.60;90.80
58309;DHT22;44117;57.142;24.826;2022-08-02T16:39:10;24.70;88.70
58309;DHT22;44117;57.142;24.826;2022-08-02T16:41:38;24.70;88.00
58309;DHT22;44117;57.142;24.826;2022-08-02T16:44:19;24.90;88.90
58309;DHT22;44117;57.142;24.826;2022-08-02T16:46:59;24.50;90.00
58309;DHT22;44117;57.142;24.826;2022-08-02T16:49:39;24.10;90.90
58309;DHT22;44117;57.142;24.826;2022-08-02T16:52:26;24.10;90.90
58309;DHT22;44117;57.142;24.826;2022-08-02T16:54:54;24.10;91.10
58309;DHT22;44117;57.142;24.826;2022-08-02T16:57:21;24.00;91.70
58309;DHT22;44117;57.142;24.826;2022-08-02T17:00:04;23.90;91.70
58309;DHT22;44117;57.142;24.826;2022-08-02T17:02:31;23.90;91.70
58309;DHT22;44117;57.142;24.826;2022-08-02T17:05:03;23.90;91.90
58309;DHT22;44117;57.142;24.826;2022-08-02T17:07:36;24.00;92.20
58309;DHT22;44117;57.142;24.826;2022-08-02T17:10:25;24.00;92.10
58309;DHT22;44117;57.142;24.826;2022-08-02T17:12:53;24.10;91.60
58309;DHT22;44117;57.142;24.826;2022-08-02T17:15:21;24.10;91.30
58309;DHT22;44117;57.142;24.826;2022-08-02T17:18:10;23.90;92.20
58309;DHT22;44117;57.142;24.826;2022-08-02T17:20:37;23.80;91.80
58309;DHT22;44117;57.142;24.826;2022-08-02T17:23:05;23.70;92.20
58309;DHT22;44117;57.142;24.826;2022-08-02T17:25:32;23.60;92.80
58309;DHT22;44117;57.142;24.826;2022-08-02T17:28:07;23.50;93.30
58309;DHT22;44117;57.142;24.826;2022-08-02T17:30:35;23.50;93.40
58309;DHT22;44117;57.142;24.826;2022-08-02T17:33:02;23.40;93.50
58309;DHT22;44117;57.142;24.826;2022-08-02T17:35:32;23.20;93.40
58309;DHT22;44117;57.142;24.826;2022-08-02T17:38:18;23.30;93.50
58309;DHT22;44117;57.142;24.826;2022-08-02T17:40:54;23.30;93.90
58309;DHT22;44117;57.142;24.826;2022-08-02T17:43:22;23.20;94.30
58309;DHT22;44117;57.142;24.826;2022-08-02T17:45:55;23.20;94.70
58309;DHT22;44117;57.142;24.826;2022-08-02T17:48:28;23.10;95.10
58309;DHT22;44117;57.142;24.826;2022-08-02T17:51:21;23.20;95.40
58309;DHT22;44117;57.142;24.826;2022-08-02T17:54:08;23.10;95.90
58309;DHT22;44117;57.142;24.826;2022-08-02T17:56:36;23.10;96.40
58309;DHT22;44117;57.142;24.826;2022-08-02T17:59:13;22.90;96.00
58309;DHT22;44117;57.142;24.826;2022-08-02T18:01:49;22.80;96.30
58309;DHT22;44117;57.142;24.826;2022-08-02T18:04:21;22.80;96.80
58309;DHT22;44117;57.142;24.826;2022-08-02T18:06:58;22.70;97.30
58309;DHT22;44117;57.142;24.826;2022-08-02T18:09:30;22.60;97.50
58309;DHT22;44117;57.142;24.826;2022-08-02T18:12:00;22.40;98.00
58309;DHT22;44117;57.142;24.826;2022-08-02T18:14:27;22.30;98.00
58309;DHT22;44117;57.142;24.826;2022-08-02T18:16:56;22.20;97.80
58309;DHT22;44117;57.142;24.826;2022-08-02T18:19:23;22.10;98.50
58309;DHT22;44117;57.142;24.826;2022-08-02T18:22:08;22.00;98.20
58309;DHT22;44117;57.142;24.826;2022-08-02T18:24:36;21.80;98.90
58309;DHT22;44117;57.142;24.826;2022-08-02T18:27:06;21.60;99.40
58309;DHT22;44117;57.142;24.826;2022-08-02T18:29:33;21.50;99.80
58309;DHT22;44117;57.142;24.826;2022-08-02T18:32:04;21.40;99.90
58309;DHT22;44117;57.142;24.826;2022-08-02T18:34:38;21.20;99.90
58309;DHT22;44117;57.142;24.826;2022-08-02T18:37:05;21.10;99.90
58309;DHT22;44117;57.142;24.826;2022-08-02T18:39:33;21.00;99.90
58309;DHT22;44117;57.142;24.826;2022-08-02T18:42:04;20.90;99.90
58309;DHT22;44117;57.142;24.826;2022-08-02T18:44:32;20.80;99.90
58309;DHT22;44117;57.142;24.826;2022-08-02T18:46:59;20.70;99.90
58309;DHT22;44117;57.142;24.826;2022-08-02T18:49:26;20.80;99.90
58309;DHT22;44117;57.142;24.826;2022-08-02T18:52:13;20.80;99.90
58309;DHT22;44117;57.142;24.826;2022-08-02T18:54:53;20.70;99.90
58309;DHT22;44117;57.142;24.826;2022-08-02T18:57:20;20.60;99.90
58309;DHT22;44117;57.142;24.826;2022-08-02T19:00:08;20.60;99.90
58309;DHT22;44117;57.142;24.826;2022-08-02T19:02:39;20.50;99.90
58309;DHT22;44117;57.142;24.826;2022-08-02T19:05:07;20.50;99.90
58309;DHT22;44117;57.142;24.826;2022-08-02T19:07:36;20.50;99.90
58309;DHT22;44117;57.142;24.826;2022-08-02T19:10:17;20.40;99.90
58309;DHT22;44117;57.142;24.826;2022-08-02T19:12:45;20.50;99.90
58309;DHT22;44117;57.142;24.826;2022-08-02T19:15:17;20.50;99.90
58309;DHT22;44117;57.142;24.826;2022-08-02T19:17:45;20.60;99.90
58309;DHT22;44117;57.142;24.826;2022-08-02T19:20:21;20.60;99.90
58309;DHT22;44117;57.142;24.826;2022-08-02T19:22:49;20.50;99.90
58309;DHT22;44117;57.142;24.826;2022-08-02T19:25:20;20.60;99.90
58309;DHT22;44117;57.142;24.826;2022-08-02T19:27:54;20.60;99.90
58309;DHT22;44117;57.142;24.826;2022-08-02T19:30:21;20.60;99.90
58309;DHT22;44117;57.142;24.826;2022-08-02T19:32:51;20.50;99.90
58309;DHT22;44117;57.142;24.826;2022-08-02T19:35:26;20.50;99.90
58309;DHT22;44117;57.142;24.826;2022-08-02T19:38:08;20.50;99.90
58309;DHT22;44117;57.142;24.826;2022-08-02T19:40:39;20.40;99.90
58309;DHT22;44117;57.142;24.826;2022-08-02T19:43:12;20.40;99.90
58309;DHT22;44117;57.142;24.826;2022-08-02T19:46:02;20.40;99.90
58309;DHT22;44117;57.142;24.826;2022-08-02T19:48:42;20.40;99.90
58309;DHT22;44117;57.142;24.826;2022-08-02T19:51:13;20.40;99.90
58309;DHT22;44117;57.142;24.826;2022-08-02T19:53:41;20.30;99.90
58309;DHT22;44117;57.142;24.826;2022-08-02T19:56:18;20.20;99.90
58309;DHT22;44117;57.142;24.826;2022-08-02T19:58:52;20.10;99.90
58309;DHT22;44117;57.142;24.826;2022-08-02T20:01:21;20.00;99.90
58309;DHT22;44117;57.142;24.826;2022-08-02T20:04:06;20.00;99.90
58309;DHT22;44117;57.142;24.826;2022-08-02T20:06:40;19.80;99.90
58309;DHT22;44117;57.142;24.826;2022-08-02T20:09:12;19.70;99.90
58309;DHT22;44117;57.142;24.826;2022-08-02T20:11:46;19.60;99.90
58309;DHT22;44117;57.142;24.826;2022-08-02T20:14:23;19.60;99.90
58309;DHT22;44117;57.142;24.826;2022-08-02T20:16:55;19.50;99.90
58309;DHT22;44117;57.142;24.826;2022-08-02T20:19:25;19.40;99.90
58309;DHT22;44117;57.142;24.826;2022-08-02T20:21:57;19.40;99.90
58309;DHT22;44117;57.142;24.826;2022-08-02T20:24:33;19.40;99.90
58309;DHT22;44117;57.142;24.826;2022-08-02T20:27:03;19.30;99.90
58309;DHT22;44117;57.142;24.826;2022-08-02T20:29:30;19.20;99.90
58309;DHT22;44117;57.142;24.826;2022-08-02T20:32:11;19.30;99.90
58309;DHT22;44117;57.142;24.826;2022-08-02T20:34:40;19.20;99.90
58309;DHT22;44117;57.142;24.826;2022-08-02T20:37:08;19.10;99.90
58309;DHT22;44117;57.142;24.826;2022-08-02T20:39:55;19.00;99.90
58309;DHT22;44117;57.142;24.826;2022-08-02T20:42:23;19.00;99.90
58309;DHT22;44117;57.142;24.826;2022-08-02T20:44:52;19.00;99.90
58309;DHT22;44117;57.142;24.826;2022-08-02T20:47:23;19.00;99.90
58309;DHT22;44117;57.142;24.826;2022-08-02T20:50:06;19.00;99.90
58309;DHT22;44117;57.142;24.826;2022-08-02T20:53:00;18.90;99.90
58309;DHT22;44117;57.142;24.826;2022-08-02T20:55:29;18.90;99.90
58309;DHT22;44117;57.142;24.826;2022-08-02T20:57:59;18.80;99.90
58309;DHT22;44117;57.142;24.826;2022-08-02T21:00:29;18.70;99.90
58309;DHT22;44117;57.142;24.826;2022-08-02T21:02:58;18.70;99.90
58309;DHT22;44117;57.142;24.826;2022-08-02T21:05:28;18.50;99.90
58309;DHT22;44117;57.142;24.826;2022-08-02T21:08:16;18.50;99.90
58309;DHT22;44117;57.142;24.826;2022-08-02T21:10:47;18.40;99.90
58309;DHT22;44117;57.142;24.826;2022-08-02T21:13:19;18.40;99.90
58309;DHT22;44117;57.142;24.826;2022-08-02T21:15:53;18.30;99.90
58309;DHT22;44117;57.142;24.826;2022-08-02T21:18:33;18.30;99.90
58309;DHT22;44117;57.142;24.826;2022-08-02T21:21:08;18.20;99.90
58309;DHT22;44117;57.142;24.826;2022-08-02T21:23:36;18.10;99.90
58309;DHT22;44117;57.142;24.826;2022-08-02T21:26:14;18.10;99.90
58309;DHT22;44117;57.142;24.826;2022-08-02T21:28:51;18.10;99.90
58309;DHT22;44117;57.142;24.826;2022-08-02T21:31:19;18.10;99.90
58309;DHT22;44117;57.142;24.826;2022-08-02T21:33:47;18.00;99.90
58309;DHT22;44117;57.142;24.826;2022-08-02T21:36:26;17.90;99.90
58309;DHT22;44117;57.142;24.826;2022-08-02T21:38:57;18.00;99.90
58309;DHT22;44117;57.142;24.826;2022-08-02T21:41:25;18.00;99.90
58309;DHT22;44117;57.142;24.826;2022-08-02T21:44:06;17.90;99.90
58309;DHT22;44117;57.142;24.826;2022-08-02T21:46:33;17.80;99.90
58309;DHT22;44117;57.142;24.826;2022-08-02T21:49:01;17.70;99.90
58309;DHT22;44117;57.142;24.826;2022-08-02T21:51:28;17.70;99.90
58309;DHT22;44117;57.142;24.826;2022-08-02T21:54:00;17.60;99.90
58309;DHT22;44117;57.142;24.826;2022-08-02T21:56:52;17.60;99.90
58309;DHT22;44117;57.142;24.826;2022-08-02T21:59:21;17.60;99.90
58309;DHT22;44117;57.142;24.826;2022-08-02T22:01:55;17.50;99.90
58309;DHT22;44117;57.142;24.826;2022-08-02T22:04:24;17.50;99.90
58309;DHT22;44117;57.142;24.826;2022-08-02T22:06:53;17.50;99.90
58309;DHT22;44117;57.142;24.826;2022-08-02T22:09:22;17.40;99.90
58309;DHT22;44117;57.142;24.826;2022-08-02T22:12:11;17.30;99.90
58309;DHT22;44117;57.142;24.826;2022-08-02T22:14:47;17.20;99.90
58309;DHT22;44117;57.142;24.826;2022-08-02T22:17:25;17.10;99.90
58309;DHT22;44117;57.142;24.826;2022-08-02T22:20:14;17.10;99.90
58309;DHT22;44117;57.142;24.826;2022-08-02T22:22:49;17.00;99.90
58309;DHT22;44117;57.142;24.826;2022-08-02T22:25:19;17.00;99.90
58309;DHT22;44117;57.142;24.826;2022-08-02T22:28:07;17.00;99.90
58309;DHT22;44117;57.142;24.826;2022-08-02T22:30:56;17.00;99.90
58309;DHT22;44117;57.142;24.826;2022-08-02T22:33:26;16.90;99.90
58309;DHT22;44117;57.142;24.826;2022-08-02T22:36:30;16.90;99.90
58309;DHT22;44117;57.142;24.826;2022-08-02T22:38:58;16.80;99.90
58309;DHT22;44117;57.142;24.826;2022-08-02T22:41:26;16.80;99.90
58309;DHT22;44117;57.142;24.826;2022-08-02T22:44:14;16.80;99.90
58309;DHT22;44117;57.142;24.826;2022-08-02T22:46:45;16.80;99.90
58309;DHT22;44117;57.142;24.826;2022-08-02T22:49:12;16.70;99.90
58309;DHT22;44117;57.142;24.826;2022-08-02T22:51:59;16.70;99.90
58309;DHT22;44117;57.142;24.826;2022-08-02T22:54:28;16.60;99.90
58309;DHT22;44117;57.142;24.826;2022-08-02T22:56:57;16.50;99.90
58309;DHT22;44117;57.142;24.826;2022-08-02T22:59:25;16.50;99.90
58309;DHT22;44117;57.142;24.826;2022-08-02T23:02:06;16.50;99.90
58309;DHT22;44117;57.142;24.826;2022-08-02T23:04:33;16.40;99.90
58309;DHT22;44117;57.142;24.826;2022-08-02T23:07:01;16.40;99.90
58309;DHT22;44117;57.142;24.826;2022-08-02T23:09:28;16.50;99.90
58309;DHT22;44117;57.142;24.826;2022-08-02T23:11:56;16.50;99.90
58309;DHT22;44117;57.142;24.826;2022-08-02T23:14:23;16.40;99.90
58309;DHT22;44117;57.142;24.826;2022-08-02T23:16:50;16.40;99.90
58309;DHT22;44117;57.142;24.826;2022-08-02T23:19:36;16.30;99.90
58309;DHT22;44117;57.142;24.826;2022-08-02T23:22:20;16.20;99.90
58309;DHT22;44117;57.142;24.826;2022-08-02T23:24:56;16.20;99.90
58309;DHT22;44117;57.142;24.826;2022-08-02T23:27:24;16.10;99.90
58309;DHT22;44117;57.142;24.826;2022-08-02T23:29:51;16.00;99.90
58309;DHT22;44117;57.142;24.826;2022-08-02T23:32:19;15.90;99.90
58309;DHT22;44117;57.142;24.826;2022-08-02T23:34:54;15.90;99.90
58309;DHT22;44117;57.142;24.826;2022-08-02T23:37:23;15.90;99.90
58309;DHT22;44117;57.142;24.826;2022-08-02T23:39:50;15.80;99.90
58309;DHT22;44117;57.142;24.826;2022-08-02T23:42:18;15.80;99.90
58309;DHT22;44117;57.142;24.826;2022-08-02T23:44:45;15.80;99.90
58309;DHT22;44117;57.142;24.826;2022-08-02T23:47:13;15.80;99.90
58309;DHT22;44117;57.142;24.826;2022-08-02T23:49:42;15.80;99.90
58309;DHT22;44117;57.142;24.826;2022-08-02T23:52:10;15.80;99.90
58309;DHT22;44117;57.142;24.826;2022-08-02T23:54:38;15.80;99.90
58309;DHT22;44117;57.142;24.826;2022-08-02T23:57:06;15.80;99.90
58309;DHT22;44117;57.142;24.826;2022-08-02T23:59:48;15.80;99.90
